Terminal Aerodrome Forecast
Issued by NWS

Current Version | Previous Version | Text Only | Print | Product List | Glossary On
Versions: 1 2 3 4 5 6 7 8 9 10 11 12 13 14
000
FTPQ31 PGUM 301129
TAFGUM
TAF

TAF
PTRO 301129Z 3012/0112 27010KT P6SM VCSH SCT014 SCT040 BKN110
      TEMPO 3012/3016 5SM -SHRA BKN014=

USA.gov is the U.S. government's official web portal to all federal, state and local government web resources and services.